createdAt,value
2023-01-09T00:02:25.064Z,32.38
2023-01-09T00:09:56.853Z,29.63
2023-01-09T00:17:28.625Z,35.13
2023-01-09T00:25:00.359Z,31.98
2023-01-09T00:32:32.298Z,37.15
2023-01-09T00:40:04.213Z,38.05
2023-01-09T00:47:42.802Z,38.45
2023-01-09T00:55:14.654Z,39.58
2023-01-09T01:02:46.533Z,37.08
2023-01-09T01:10:22.187Z,36.80
2023-01-09T01:17:54.033Z,29.85
2023-01-09T01:25:25.829Z,28.30
2023-01-09T01:32:57.646Z,31.40
2023-01-09T01:40:29.921Z,24.52
2023-01-09T01:48:37.175Z,25.02
2023-01-09T01:56:26.466Z,23.05
2023-01-09T02:03:58.462Z,22.63
2023-01-09T02:11:30.236Z,21.45
2023-01-09T02:19:42.321Z,20.60
2023-01-09T02:27:24.117Z,19.25
2023-01-09T02:35:02.430Z,18.25
2023-01-09T02:42:34.195Z,21.65
2023-01-09T02:50:09.799Z,14.45
2023-01-09T02:58:09.326Z,16.98
2023-01-09T03:05:51.426Z,14.20
2023-01-09T03:13:24.900Z,14.82
2023-01-09T03:20:56.709Z,13.40
2023-01-09T03:28:28.983Z,13.43
2023-01-09T03:36:00.806Z,12.45
2023-01-09T03:43:32.609Z,12.10
2023-01-09T03:51:04.423Z,10.73
2023-01-09T03:58:36.239Z,9.20
2023-01-09T04:06:08.045Z,11.40
2023-01-09T04:13:39.859Z,10.45
2023-01-09T04:21:11.679Z,10.30
2023-01-09T04:28:43.391Z,10.98
2023-01-09T04:36:15.159Z,8.40
2023-01-09T04:43:46.910Z,8.80
2023-01-09T04:51:18.663Z,7.80
2023-01-09T04:58:50.421Z,6.57
2023-01-09T05:06:22.155Z,8.32
2023-01-09T05:13:53.964Z,6.60
2023-01-09T05:21:25.760Z,8.40
2023-01-09T05:28:57.570Z,11.15
2023-01-09T05:36:29.718Z,6.60
2023-01-09T05:44:07.577Z,6.57
2023-01-09T05:51:39.377Z,7.93
2023-01-09T05:59:11.136Z,6.70
2023-01-09T06:06:42.963Z,8.05
2023-01-09T06:14:14.738Z,6.60
2023-01-09T06:21:46.525Z,5.65
2023-01-09T06:29:18.408Z,7.78
2023-01-09T06:36:50.197Z,6.80
2023-01-09T06:44:21.945Z,5.30
2023-01-09T06:51:53.698Z,9.65
2023-01-09T06:59:25.616Z,6.50
2023-01-09T07:06:57.330Z,6.15
2023-01-09T07:14:29.087Z,5.93
2023-01-09T07:22:00.834Z,6.43
2023-01-09T07:29:32.596Z,8.55
2023-01-09T07:37:04.379Z,12.50
2023-01-09T07:44:36.237Z,10.20
2023-01-09T07:52:08.196Z,10.60
2023-01-09T07:59:40.077Z,11.90
2023-01-09T08:07:11.890Z,11.32
2023-01-09T08:14:43.662Z,12.30
2023-01-09T08:22:15.449Z,15.90
2023-01-09T08:29:47.197Z,13.23
2023-01-09T08:37:18.937Z,14.00
2023-01-09T08:45:09.207Z,17.48
2023-01-09T08:52:40.949Z,14.82
2023-01-09T09:00:13.879Z,16.27
2023-01-09T09:07:56.374Z,14.93
2023-01-09T09:15:28.682Z,16.30
2023-01-09T09:23:00.511Z,15.75
2023-01-09T09:30:32.347Z,20.10
2023-01-09T09:38:05.552Z,17.70
2023-01-09T09:45:55.339Z,15.00
2023-01-09T09:53:51.974Z,18.52
2023-01-09T10:01:45.629Z,19.25
2023-01-09T10:10:00.586Z,18.10
2023-01-09T10:18:12.253Z,19.05
2023-01-09T10:26:01.458Z,17.70
2023-01-09T10:33:48.237Z,18.95
2023-01-09T10:41:24.055Z,17.23
2023-01-09T10:48:59.652Z,16.95
2023-01-09T10:56:34.379Z,17.00
2023-01-09T11:04:20.649Z,14.02
2023-01-09T11:11:52.886Z,22.50
2023-01-09T11:19:25.638Z,20.45
2023-01-09T11:27:12.625Z,20.85
2023-01-09T11:34:45.157Z,18.90
2023-01-09T11:42:47.198Z,15.57
2023-01-09T11:50:24.923Z,13.30
2023-01-09T11:57:56.831Z,12.90
2023-01-09T12:05:53.312Z,14.40
2023-01-09T12:13:53.287Z,11.88
2023-01-09T12:21:46.042Z,15.93
2023-01-09T12:29:26.996Z,16.52
2023-01-09T12:37:01.793Z,13.93
2023-01-09T12:44:57.756Z,8.27
2023-01-09T12:52:34.784Z,15.90
2023-01-09T13:00:18.885Z,8.57
2023-01-09T13:08:02.163Z,10.93
2023-01-09T13:15:39.708Z,12.55
2023-01-09T13:23:56.352Z,9.98
2023-01-09T13:31:41.707Z,11.43
2023-01-09T13:39:39.814Z,8.00
2023-01-09T13:47:35.677Z,8.35
2023-01-09T13:55:16.441Z,7.68
2023-01-09T14:02:49.799Z,9.45
2023-01-09T14:10:42.024Z,6.75
2023-01-09T14:18:23.935Z,16.92
2023-01-09T14:25:55.803Z,13.40
2023-01-09T14:33:29.916Z,9.18
2023-01-09T14:41:46.249Z,8.75
2023-01-09T14:49:32.085Z,8.48
2023-01-09T14:57:03.992Z,7.13
2023-01-09T15:04:36.349Z,10.57
2023-01-09T15:12:09.492Z,5.88
2023-01-09T15:19:44.303Z,5.72
2023-01-09T15:27:16.466Z,5.82
2023-01-09T15:34:48.522Z,7.55
2023-01-09T15:42:44.304Z,8.48
2023-01-09T15:50:26.773Z,5.90
2023-01-09T15:57:58.730Z,6.95
2023-01-09T16:05:32.943Z,4.32
2023-01-09T16:13:04.756Z,8.27
2023-01-09T16:20:36.780Z,9.13
2023-01-09T16:28:27.125Z,8.85
2023-01-09T16:35:59.078Z,8.00
2023-01-09T16:43:30.812Z,5.20
2023-01-09T16:51:02.616Z,8.70
2023-01-09T16:58:35.343Z,6.25
2023-01-09T17:06:07.511Z,6.78
2023-01-09T17:13:39.262Z,4.82
2023-01-09T17:21:23.170Z,4.50
2023-01-09T17:28:54.935Z,4.22
2023-01-09T17:36:32.166Z,4.88
2023-01-09T17:44:04.354Z,4.35
2023-01-09T17:51:36.111Z,6.80
2023-01-09T17:59:10.012Z,4.32
2023-01-09T18:06:41.868Z,4.95
2023-01-09T18:14:14.060Z,3.30
2023-01-09T18:21:46.753Z,4.95
2023-01-09T18:29:19.262Z,4.28
2023-01-09T18:36:51.063Z,5.40
2023-01-09T18:44:23.287Z,6.80
2023-01-09T18:51:55.337Z,5.45
2023-01-09T18:59:27.055Z,5.15
2023-01-09T19:06:59.864Z,5.32
2023-01-09T19:14:31.587Z,4.38
2023-01-09T19:22:03.503Z,4.93
2023-01-09T19:29:36.870Z,4.35
2023-01-09T19:37:09.568Z,3.65
2023-01-09T19:44:41.424Z,2.90
2023-01-09T19:52:14.642Z,4.10
2023-01-09T19:59:46.400Z,3.88
2023-01-09T20:07:18.161Z,3.65
2023-01-09T20:14:50.002Z,11.15
2023-01-09T20:22:23.965Z,3.75
2023-01-09T20:29:55.800Z,4.57
2023-01-09T20:37:27.542Z,6.38
2023-01-09T20:44:59.614Z,9.18
2023-01-09T20:52:31.354Z,5.78
2023-01-09T21:00:04.440Z,5.40
2023-01-09T21:07:36.197Z,4.95
2023-01-09T21:15:09.722Z,3.40
2023-01-09T21:22:41.574Z,4.60
2023-01-09T21:30:13.469Z,4.70
2023-01-09T21:37:45.237Z,5.57
2023-01-09T21:45:35.632Z,4.75
2023-01-09T21:53:07.984Z,7.90
2023-01-09T22:00:41.022Z,4.85
2023-01-09T22:08:12.806Z,2.15
2023-01-09T22:15:46.050Z,4.15
2023-01-09T22:23:17.766Z,7.60
2023-01-09T22:30:49.529Z,4.13
2023-01-09T22:38:21.296Z,3.53
2023-01-09T22:45:53.032Z,4.50
2023-01-09T22:53:24.808Z,2.50
2023-01-09T23:00:56.612Z,5.63
2023-01-09T23:08:29.120Z,4.95
2023-01-09T23:16:01.757Z,5.53
2023-01-09T23:23:33.532Z,3.47
2023-01-09T23:31:05.326Z,2.13
2023-01-09T23:38:37.120Z,5.90
2023-01-09T23:46:08.929Z,3.15
2023-01-09T23:53:40.701Z,2.65
